sensor_id;sensor_type;location;lat;lon;timestamp;temperature;humidity
63051;SHT30;49136;47.416;19.402;2023-04-03T00:00:25;7.30;99.99
63051;SHT30;49136;47.416;19.402;2023-04-03T00:02:50;7.31;99.99
63051;SHT30;49136;47.416;19.402;2023-04-03T00:05:16;7.27;99.99
63051;SHT30;49136;47.416;19.402;2023-04-03T00:07:41;7.26;99.99
63051;SHT30;49136;47.416;19.402;2023-04-03T00:10:07;7.17;99.99
63051;SHT30;49136;47.416;19.402;2023-04-03T00:12:33;7.17;99.99
63051;SHT30;49136;47.416;19.402;2023-04-03T00:14:58;7.15;99.13
63051;SHT30;49136;47.416;19.402;2023-04-03T00:17:24;7.12;99.55
63051;SHT30;49136;47.416;19.402;2023-04-03T00:19:50;7.03;96.82
63051;SHT30;49136;47.416;19.402;2023-04-03T00:22:15;6.98;95.91
63051;SHT30;49136;47.416;19.402;2023-04-03T00:24:41;6.85;93.77
63051;SHT30;49136;47.416;19.402;2023-04-03T00:27:07;6.89;94.19
63051;SHT30;49136;47.416;19.402;2023-04-03T00:29:32;6.85;94.62
63051;SHT30;49136;47.416;19.402;2023-04-03T00:31:58;6.73;94.62
63051;SHT30;49136;47.416;19.402;2023-04-03T00:34:23;6.67;94.76
63051;SHT30;49136;47.416;19.402;2023-04-03T00:36:48;6.71;94.93
63051;SHT30;49136;47.416;19.402;2023-04-03T00:39:14;6.60;95.66
63051;SHT30;49136;47.416;19.402;2023-04-03T00:41:40;6.60;94.62
63051;SHT30;49136;47.416;19.402;2023-04-03T00:46:52;6.46;94.68
63051;SHT30;49136;47.416;19.402;2023-04-03T00:49:18;6.43;94.47
63051;SHT30;49136;47.416;19.402;2023-04-03T00:51:43;6.46;94.04
63051;SHT30;49136;47.416;19.402;2023-04-03T00:54:09;6.41;93.80
63051;SHT30;49136;47.416;19.402;2023-04-03T00:56:35;6.44;93.36
63051;SHT30;49136;47.416;19.402;2023-04-03T00:59:06;6.44;93.56
63051;SHT30;49136;47.416;19.402;2023-04-03T01:01:33;6.43;92.70
63051;SHT30;49136;47.416;19.402;2023-04-03T01:04:00;6.37;93.58
63051;SHT30;49136;47.416;19.402;2023-04-03T01:06:28;6.34;93.48
63051;SHT30;49136;47.416;19.402;2023-04-03T01:08:56;6.33;93.30
63051;SHT30;49136;47.416;19.402;2023-04-03T01:11:21;6.33;93.52
63051;SHT30;49136;47.416;19.402;2023-04-03T01:13:47;6.29;94.77
63051;SHT30;49136;47.416;19.402;2023-04-03T01:16:14;6.22;94.82
63051;SHT30;49136;47.416;19.402;2023-04-03T01:18:40;6.19;95.67
63051;SHT30;49136;47.416;19.402;2023-04-03T01:26:15;6.14;95.16
63051;SHT30;49136;47.416;19.402;2023-04-03T01:28:41;6.09;96.04
63051;SHT30;49136;47.416;19.402;2023-04-03T01:33:57;6.12;94.84
63051;SHT30;49136;47.416;19.402;2023-04-03T01:36:25;6.09;94.85
63051;SHT30;49136;47.416;19.402;2023-04-03T01:38:52;6.08;95.97
63051;SHT30;49136;47.416;19.402;2023-04-03T01:41:18;6.08;95.32
63051;SHT30;49136;47.416;19.402;2023-04-03T01:43:44;6.12;94.32
63051;SHT30;49136;47.416;19.402;2023-04-03T01:46:10;6.12;94.56
63051;SHT30;49136;47.416;19.402;2023-04-03T01:48:35;6.09;93.76
63051;SHT30;49136;47.416;19.402;2023-04-03T01:51:01;6.09;94.47
63051;SHT30;49136;47.416;19.402;2023-04-03T01:53:26;6.05;94.96
63051;SHT30;49136;47.416;19.402;2023-04-03T01:55:52;6.02;94.67
63051;SHT30;49136;47.416;19.402;2023-04-03T01:58:17;6.04;94.43
63051;SHT30;49136;47.416;19.402;2023-04-03T02:00:43;5.98;94.29
63051;SHT30;49136;47.416;19.402;2023-04-03T02:03:08;5.99;94.45
63051;SHT30;49136;47.416;19.402;2023-04-03T02:05:34;5.88;94.58
63051;SHT30;49136;47.416;19.402;2023-04-03T02:08:00;5.81;94.44
63051;SHT30;49136;47.416;19.402;2023-04-03T02:10:26;5.74;94.53
63051;SHT30;49136;47.416;19.402;2023-04-03T02:12:52;5.57;95.51
63051;SHT30;49136;47.416;19.402;2023-04-03T02:15:17;5.53;96.08
63051;SHT30;49136;47.416;19.402;2023-04-03T02:17:43;5.49;97.00
63051;SHT30;49136;47.416;19.402;2023-04-03T02:20:09;5.54;96.56
63051;SHT30;49136;47.416;19.402;2023-04-03T02:22:35;5.52;95.97
63051;SHT30;49136;47.416;19.402;2023-04-03T02:25:00;5.60;94.32
63051;SHT30;49136;47.416;19.402;2023-04-03T02:27:26;5.59;94.61
63051;SHT30;49136;47.416;19.402;2023-04-03T02:29:52;5.64;93.98
63051;SHT30;49136;47.416;19.402;2023-04-03T02:32:18;5.64;93.54
63051;SHT30;49136;47.416;19.402;2023-04-03T02:34:43;5.69;93.48
63051;SHT30;49136;47.416;19.402;2023-04-03T02:37:09;5.74;93.26
63051;SHT30;49136;47.416;19.402;2023-04-03T02:39:34;5.69;93.39
63051;SHT30;49136;47.416;19.402;2023-04-03T02:42:00;5.77;93.41
63051;SHT30;49136;47.416;19.402;2023-04-03T02:44:25;5.74;91.81
63051;SHT30;49136;47.416;19.402;2023-04-03T02:46:51;5.80;91.63
63051;SHT30;49136;47.416;19.402;2023-04-03T02:49:16;5.80;91.13
63051;SHT30;49136;47.416;19.402;2023-04-03T02:51:42;5.74;90.99
63051;SHT30;49136;47.416;19.402;2023-04-03T02:54:07;5.78;91.07
63051;SHT30;49136;47.416;19.402;2023-04-03T02:56:33;5.71;91.80
63051;SHT30;49136;47.416;19.402;2023-04-03T02:58:59;5.78;90.64
63051;SHT30;49136;47.416;19.402;2023-04-03T03:01:24;5.78;90.09
63051;SHT30;49136;47.416;19.402;2023-04-03T03:03:50;5.81;90.08
63051;SHT30;49136;47.416;19.402;2023-04-03T03:06:16;5.75;90.14
63051;SHT30;49136;47.416;19.402;2023-04-03T03:08:43;5.71;89.38
63051;SHT30;49136;47.416;19.402;2023-04-03T03:11:12;5.78;89.66
63051;SHT30;49136;47.416;19.402;2023-04-03T03:13:37;5.74;89.62
63051;SHT30;49136;47.416;19.402;2023-04-03T03:16:03;5.71;90.16
63051;SHT30;49136;47.416;19.402;2023-04-03T03:18:29;5.74;89.46
63051;SHT30;49136;47.416;19.402;2023-04-03T03:20:57;5.77;89.36
63051;SHT30;49136;47.416;19.402;2023-04-03T03:23:24;5.74;89.71
63051;SHT30;49136;47.416;19.402;2023-04-03T03:25:55;5.70;90.06
63051;SHT30;49136;47.416;19.402;2023-04-03T03:28:21;5.70;90.39
63051;SHT30;49136;47.416;19.402;2023-04-03T03:30:46;5.69;89.53
63051;SHT30;49136;47.416;19.402;2023-04-03T03:33:12;5.67;89.62
63051;SHT30;49136;47.416;19.402;2023-04-03T03:35:37;5.64;89.79
63051;SHT30;49136;47.416;19.402;2023-04-03T03:38:03;5.69;89.93
63051;SHT30;49136;47.416;19.402;2023-04-03T03:40:28;5.64;90.43
63051;SHT30;49136;47.416;19.402;2023-04-03T03:42:54;5.67;89.04
63051;SHT30;49136;47.416;19.402;2023-04-03T03:45:19;5.66;88.92
63051;SHT30;49136;47.416;19.402;2023-04-03T03:47:44;5.66;89.83
63051;SHT30;49136;47.416;19.402;2023-04-03T03:50:10;5.57;89.66
63051;SHT30;49136;47.416;19.402;2023-04-03T03:52:36;5.53;90.06
63051;SHT30;49136;47.416;19.402;2023-04-03T03:55:01;5.49;90.48
63051;SHT30;49136;47.416;19.402;2023-04-03T03:57:27;5.50;90.08
63051;SHT30;49136;47.416;19.402;2023-04-03T03:59:54;5.47;90.66
63051;SHT30;49136;47.416;19.402;2023-04-03T04:02:20;5.43;90.57
63051;SHT30;49136;47.416;19.402;2023-04-03T04:04:45;5.47;89.88
63051;SHT30;49136;47.416;19.402;2023-04-03T04:07:11;5.43;90.24
63051;SHT30;49136;47.416;19.402;2023-04-03T04:09:37;5.43;89.33
63051;SHT30;49136;47.416;19.402;2023-04-03T04:12:02;5.42;88.27
63051;SHT30;49136;47.416;19.402;2023-04-03T04:14:27;5.40;87.29
63051;SHT30;49136;47.416;19.402;2023-04-03T04:16:53;5.46;87.42
63051;SHT30;49136;47.416;19.402;2023-04-03T04:19:18;5.39;87.10
63051;SHT30;49136;47.416;19.402;2023-04-03T04:21:44;5.36;87.61
63051;SHT30;49136;47.416;19.402;2023-04-03T04:24:09;5.36;87.48
63051;SHT30;49136;47.416;19.402;2023-04-03T04:26:35;5.32;86.05
63051;SHT30;49136;47.416;19.402;2023-04-03T04:29:00;5.31;87.21
63051;SHT30;49136;47.416;19.402;2023-04-03T04:31:26;5.35;85.32
63051;SHT30;49136;47.416;19.402;2023-04-03T04:33:52;5.27;85.72
63051;SHT30;49136;47.416;19.402;2023-04-03T04:36:18;5.25;86.33
63051;SHT30;49136;47.416;19.402;2023-04-03T04:38:43;5.24;85.34
63051;SHT30;49136;47.416;19.402;2023-04-03T04:41:09;5.17;86.80
63051;SHT30;49136;47.416;19.402;2023-04-03T04:43:35;5.14;86.03
63051;SHT30;49136;47.416;19.402;2023-04-03T04:46:05;5.14;86.85
63051;SHT30;49136;47.416;19.402;2023-04-03T04:48:31;5.14;84.89
63051;SHT30;49136;47.416;19.402;2023-04-03T04:50:57;5.15;86.26
63051;SHT30;49136;47.416;19.402;2023-04-03T04:53:25;5.15;85.28
63051;SHT30;49136;47.416;19.402;2023-04-03T04:55:51;5.21;84.80
63051;SHT30;49136;47.416;19.402;2023-04-03T04:58:17;5.27;84.53
63051;SHT30;49136;47.416;19.402;2023-04-03T05:00:43;5.32;84.56
63051;SHT30;49136;47.416;19.402;2023-04-03T05:03:08;5.36;84.67
63051;SHT30;49136;47.416;19.402;2023-04-03T05:05:34;5.40;84.45
63051;SHT30;49136;47.416;19.402;2023-04-03T05:08:01;5.49;83.19
63051;SHT30;49136;47.416;19.402;2023-04-03T05:10:26;5.53;84.18
63051;SHT30;49136;47.416;19.402;2023-04-03T05:12:51;5.50;83.12
63051;SHT30;49136;47.416;19.402;2023-04-03T05:15:17;5.53;84.04
63051;SHT30;49136;47.416;19.402;2023-04-03T05:17:42;5.43;83.11
63051;SHT30;49136;47.416;19.402;2023-04-03T05:20:08;5.43;83.12
63051;SHT30;49136;47.416;19.402;2023-04-03T05:22:34;5.43;84.35
63051;SHT30;49136;47.416;19.402;2023-04-03T05:24:59;5.45;84.03
63051;SHT30;49136;47.416;19.402;2023-04-03T05:27:25;5.52;83.66
63051;SHT30;49136;47.416;19.402;2023-04-03T05:29:53;5.45;82.70
63051;SHT30;49136;47.416;19.402;2023-04-03T05:32:19;5.50;83.10
63051;SHT30;49136;47.416;19.402;2023-04-03T05:34:44;5.62;82.54
63051;SHT30;49136;47.416;19.402;2023-04-03T05:37:10;5.66;82.56
63051;SHT30;49136;47.416;19.402;2023-04-03T05:39:35;5.74;81.99
63051;SHT30;49136;47.416;19.402;2023-04-03T05:42:01;5.70;81.57
63051;SHT30;49136;47.416;19.402;2023-04-03T05:44:26;5.60;82.43
63051;SHT30;49136;47.416;19.402;2023-04-03T05:46:52;5.77;82.14
63051;SHT30;49136;47.416;19.402;2023-04-03T05:49:17;5.90;81.70
63051;SHT30;49136;47.416;19.402;2023-04-03T05:51:43;6.09;81.19
63051;SHT30;49136;47.416;19.402;2023-04-03T05:54:19;6.26;80.78
63051;SHT30;49136;47.416;19.402;2023-04-03T05:56:46;6.44;79.82
63051;SHT30;49136;47.416;19.402;2023-04-03T05:59:11;6.49;79.15
63051;SHT30;49136;47.416;19.402;2023-04-03T06:01:37;6.60;79.11
63051;SHT30;49136;47.416;19.402;2023-04-03T06:04:02;6.44;78.92
63051;SHT30;49136;47.416;19.402;2023-04-03T06:09:10;6.40;79.20
63051;SHT30;49136;47.416;19.402;2023-04-03T06:11:36;6.64;79.26
63051;SHT30;49136;47.416;19.402;2023-04-03T06:14:02;6.78;78.34
63051;SHT30;49136;47.416;19.402;2023-04-03T06:16:28;6.60;78.66
63051;SHT30;49136;47.416;19.402;2023-04-03T06:18:54;6.74;77.48
63051;SHT30;49136;47.416;19.402;2023-04-03T06:21:20;6.75;77.73
63051;SHT30;49136;47.416;19.402;2023-04-03T06:23:45;6.98;78.64
63051;SHT30;49136;47.416;19.402;2023-04-03T06:26:11;6.95;77.03
63051;SHT30;49136;47.416;19.402;2023-04-03T06:28:36;7.35;77.10
63051;SHT30;49136;47.416;19.402;2023-04-03T06:31:02;7.35;76.33
63051;SHT30;49136;47.416;19.402;2023-04-03T06:33:28;7.54;76.15
63051;SHT30;49136;47.416;19.402;2023-04-03T06:35:58;7.20;76.17
63051;SHT30;49136;47.416;19.402;2023-04-03T06:38:23;7.24;76.11
63051;SHT30;49136;47.416;19.402;2023-04-03T06:40:49;6.82;76.15
63051;SHT30;49136;47.416;19.402;2023-04-03T06:43:15;7.46;77.03
63051;SHT30;49136;47.416;19.402;2023-04-03T06:45:40;7.71;76.22
63051;SHT30;49136;47.416;19.402;2023-04-03T06:48:06;7.55;76.28
63051;SHT30;49136;47.416;19.402;2023-04-03T06:50:31;7.46;75.92
63051;SHT30;49136;47.416;19.402;2023-04-03T06:52:57;7.34;76.10
63051;SHT30;49136;47.416;19.402;2023-04-03T06:55:22;7.67;76.13
63051;SHT30;49136;47.416;19.402;2023-04-03T06:57:47;7.92;75.51
63051;SHT30;49136;47.416;19.402;2023-04-03T07:00:13;8.10;74.18
63051;SHT30;49136;47.416;19.402;2023-04-03T07:02:40;8.11;74.27
63051;SHT30;49136;47.416;19.402;2023-04-03T07:05:06;7.93;73.30
63051;SHT30;49136;47.416;19.402;2023-04-03T07:07:32;8.41;74.26
63051;SHT30;49136;47.416;19.402;2023-04-03T07:09:59;8.35;72.46
63051;SHT30;49136;47.416;19.402;2023-04-03T07:12:24;8.04;73.34
63051;SHT30;49136;47.416;19.402;2023-04-03T07:14:50;8.55;73.53
63051;SHT30;49136;47.416;19.402;2023-04-03T07:17:15;9.00;71.88
63051;SHT30;49136;47.416;19.402;2023-04-03T07:19:41;9.01;71.87
63051;SHT30;49136;47.416;19.402;2023-04-03T07:22:06;8.73;71.66
63051;SHT30;49136;47.416;19.402;2023-04-03T07:24:33;9.22;72.04
63051;SHT30;49136;47.416;19.402;2023-04-03T07:26:58;9.00;70.33
63051;SHT30;49136;47.416;19.402;2023-04-03T07:29:23;9.24;71.84
63051;SHT30;49136;47.416;19.402;2023-04-03T07:31:49;8.89;71.90
63051;SHT30;49136;47.416;19.402;2023-04-03T07:34:14;9.35;70.00
63051;SHT30;49136;47.416;19.402;2023-04-03T07:36:40;9.14;69.72
63051;SHT30;49136;47.416;19.402;2023-04-03T07:39:06;10.12;70.95
63051;SHT30;49136;47.416;19.402;2023-04-03T07:41:33;9.83;69.13
63051;SHT30;49136;47.416;19.402;2023-04-03T07:43:59;9.40;68.25
63051;SHT30;49136;47.416;19.402;2023-04-03T07:46:24;9.83;69.29
63051;SHT30;49136;47.416;19.402;2023-04-03T07:48:51;9.87;68.22
63051;SHT30;49136;47.416;19.402;2023-04-03T07:51:16;9.69;67.42
63051;SHT30;49136;47.416;19.402;2023-04-03T07:53:42;9.98;67.73
63051;SHT30;49136;47.416;19.402;2023-04-03T07:56:08;9.80;68.29
63051;SHT30;49136;47.416;19.402;2023-04-03T07:58:34;9.98;66.53
63051;SHT30;49136;47.416;19.402;2023-04-03T08:01:00;10.05;66.83
63051;SHT30;49136;47.416;19.402;2023-04-03T08:03:25;9.77;67.97
63051;SHT30;49136;47.416;19.402;2023-04-03T08:05:51;10.01;66.99
63051;SHT30;49136;47.416;19.402;2023-04-03T08:08:19;10.12;66.40
63051;SHT30;49136;47.416;19.402;2023-04-03T08:10:51;9.79;66.73
63051;SHT30;49136;47.416;19.402;2023-04-03T08:13:18;10.42;66.71
63051;SHT30;49136;47.416;19.402;2023-04-03T08:15:43;9.94;68.62
63051;SHT30;49136;47.416;19.402;2023-04-03T08:18:09;9.83;67.19
63051;SHT30;49136;47.416;19.402;2023-04-03T08:20:34;9.49;67.32
63051;SHT30;49136;47.416;19.402;2023-04-03T08:23:00;9.49;67.20
63051;SHT30;49136;47.416;19.402;2023-04-03T08:25:25;9.70;67.45
63051;SHT30;49136;47.416;19.402;2023-04-03T08:27:51;9.46;68.56
63051;SHT30;49136;47.416;19.402;2023-04-03T08:30:17;10.11;68.77
63051;SHT30;49136;47.416;19.402;2023-04-03T08:32:42;10.25;67.74
63051;SHT30;49136;47.416;19.402;2023-04-03T08:35:09;10.09;66.71
63051;SHT30;49136;47.416;19.402;2023-04-03T08:37:36;10.31;66.77
63051;SHT30;49136;47.416;19.402;2023-04-03T08:40:03;10.40;66.59
63051;SHT30;49136;47.416;19.402;2023-04-03T08:45:16;10.24;66.46
63051;SHT30;49136;47.416;19.402;2023-04-03T08:50:21;10.12;66.83
63051;SHT30;49136;47.416;19.402;2023-04-03T08:52:55;9.69;67.55
63051;SHT30;49136;47.416;19.402;2023-04-03T08:58:15;10.42;65.46
63051;SHT30;49136;47.416;19.402;2023-04-03T09:00:51;10.66;64.81
63051;SHT30;49136;47.416;19.402;2023-04-03T09:03:21;10.61;64.58
63051;SHT30;49136;47.416;19.402;2023-04-03T09:08:40;10.16;64.71
63051;SHT30;49136;47.416;19.402;2023-04-03T09:11:20;10.83;65.01
63051;SHT30;49136;47.416;19.402;2023-04-03T09:14:11;11.29;63.78
63051;SHT30;49136;47.416;19.402;2023-04-03T09:16:54;11.37;62.28
63051;SHT30;49136;47.416;19.402;2023-04-03T09:21:46;10.38;63.42
63051;SHT30;49136;47.416;19.402;2023-04-03T09:24:14;11.44;62.78
63051;SHT30;49136;47.416;19.402;2023-04-03T09:26:44;11.08;61.79
63051;SHT30;49136;47.416;19.402;2023-04-03T09:29:18;11.68;63.23
63051;SHT30;49136;47.416;19.402;2023-04-03T09:31:44;10.71;61.89
63051;SHT30;49136;47.416;19.402;2023-04-03T09:36:55;11.42;64.28
63051;SHT30;49136;47.416;19.402;2023-04-03T09:39:29;11.75;63.93
63051;SHT30;49136;47.416;19.402;2023-04-03T09:41:56;12.91;61.84
63051;SHT30;49136;47.416;19.402;2023-04-03T09:44:25;13.41;60.43
63051;SHT30;49136;47.416;19.402;2023-04-03T09:46:51;12.62;61.67
63051;SHT30;49136;47.416;19.402;2023-04-03T09:49:17;12.12;61.79
63051;SHT30;49136;47.416;19.402;2023-04-03T09:51:42;12.45;60.36
63051;SHT30;49136;47.416;19.402;2023-04-03T09:54:35;12.10;60.29
63051;SHT30;49136;47.416;19.402;2023-04-03T09:57:22;12.40;60.15
63051;SHT30;49136;47.416;19.402;2023-04-03T09:59:58;12.05;59.80
63051;SHT30;49136;47.416;19.402;2023-04-03T10:02:38;12.61;59.02
63051;SHT30;49136;47.416;19.402;2023-04-03T10:05:28;12.61;57.43
63051;SHT30;49136;47.416;19.402;2023-04-03T10:10:39;13.03;60.20
63051;SHT30;49136;47.416;19.402;2023-04-03T10:13:19;13.37;60.96
63051;SHT30;49136;47.416;19.402;2023-04-03T10:16:06;11.39;60.49
63051;SHT30;49136;47.416;19.402;2023-04-03T10:22:05;11.09;60.25
63051;SHT30;49136;47.416;19.402;2023-04-03T10:24:53;11.32;59.41
63051;SHT30;49136;47.416;19.402;2023-04-03T10:45:00;10.16;62.88
63051;SHT30;49136;47.416;19.402;2023-04-03T10:47:32;10.40;62.59
63051;SHT30;49136;47.416;19.402;2023-04-03T10:58:03;10.24;61.26
63051;SHT30;49136;47.416;19.402;2023-04-03T11:00:39;10.26;62.36
63051;SHT30;49136;47.416;19.402;2023-04-03T11:03:41;10.61;62.94
63051;SHT30;49136;47.416;19.402;2023-04-03T11:06:11;10.81;62.81
63051;SHT30;49136;47.416;19.402;2023-04-03T11:11:20;10.73;60.36
63051;SHT30;49136;47.416;19.402;2023-04-03T11:13:58;10.91;61.33
63051;SHT30;49136;47.416;19.402;2023-04-03T11:16:32;11.04;60.55
63051;SHT30;49136;47.416;19.402;2023-04-03T11:19:11;11.11;59.29
63051;SHT30;49136;47.416;19.402;2023-04-03T11:21:44;11.44;58.71
63051;SHT30;49136;47.416;19.402;2023-04-03T11:24:19;11.19;58.73
63051;SHT30;49136;47.416;19.402;2023-04-03T11:26:49;11.32;59.88
63051;SHT30;49136;47.416;19.402;2023-04-03T11:29:29;10.80;59.10
63051;SHT30;49136;47.416;19.402;2023-04-03T11:34:36;11.79;58.62
63051;SHT30;49136;47.416;19.402;2023-04-03T11:37:22;12.10;58.65
63051;SHT30;49136;47.416;19.402;2023-04-03T11:39:56;11.60;58.43
63051;SHT30;49136;47.416;19.402;2023-04-03T11:47:55;12.30;57.93
63051;SHT30;49136;47.416;19.402;2023-04-03T11:52:59;11.68;59.19
63051;SHT30;49136;47.416;19.402;2023-04-03T12:16:25;13.87;53.54
63051;SHT30;49136;47.416;19.402;2023-04-03T12:26:28;12.77;54.27
63051;SHT30;49136;47.416;19.402;2023-04-03T12:28:55;13.00;54.17
63051;SHT30;49136;47.416;19.402;2023-04-03T12:31:22;13.24;53.76
63051;SHT30;49136;47.416;19.402;2023-04-03T12:34:18;13.51;53.75
63051;SHT30;49136;47.416;19.402;2023-04-03T12:37:07;12.69;52.88
63051;SHT30;49136;47.416;19.402;2023-04-03T12:42:43;13.02;53.46
63051;SHT30;49136;47.416;19.402;2023-04-03T12:45:25;13.31;55.23
63051;SHT30;49136;47.416;19.402;2023-04-03T12:47:54;13.59;55.93
63051;SHT30;49136;47.416;19.402;2023-04-03T12:50:24;12.88;55.27
63051;SHT30;49136;47.416;19.402;2023-04-03T12:52:56;12.93;53.99
63051;SHT30;49136;47.416;19.402;2023-04-03T12:55:23;12.85;55.19
63051;SHT30;49136;47.416;19.402;2023-04-03T12:57:48;12.37;55.53
63051;SHT30;49136;47.416;19.402;2023-04-03T13:02:48;11.73;57.00
63051;SHT30;49136;47.416;19.402;2023-04-03T13:05:17;11.99;58.59
63051;SHT30;49136;47.416;19.402;2023-04-03T13:07:43;11.60;56.85
63051;SHT30;49136;47.416;19.402;2023-04-03T13:12:57;11.89;57.15
63051;SHT30;49136;47.416;19.402;2023-04-03T13:15:30;11.75;57.18
63051;SHT30;49136;47.416;19.402;2023-04-03T13:18:04;11.59;59.01
63051;SHT30;49136;47.416;19.402;2023-04-03T13:20:34;11.23;56.23
63051;SHT30;49136;47.416;19.402;2023-04-03T13:23:08;10.95;56.54
63051;SHT30;49136;47.416;19.402;2023-04-03T13:25:40;11.08;56.97
63051;SHT30;49136;47.416;19.402;2023-04-03T13:28:10;11.32;58.12
63051;SHT30;49136;47.416;19.402;2023-04-03T13:30:39;11.47;57.23
63051;SHT30;49136;47.416;19.402;2023-04-03T13:33:19;11.78;56.65
63051;SHT30;49136;47.416;19.402;2023-04-03T13:35:46;11.20;55.21
63051;SHT30;49136;47.416;19.402;2023-04-03T13:40:55;10.83;55.62
63051;SHT30;49136;47.416;19.402;2023-04-03T13:43:27;11.02;56.43
63051;SHT30;49136;47.416;19.402;2023-04-03T13:45:56;10.94;56.43
63051;SHT30;49136;47.416;19.402;2023-04-03T13:48:22;11.25;56.13
63051;SHT30;49136;47.416;19.402;2023-04-03T13:51:03;11.40;56.24
63051;SHT30;49136;47.416;19.402;2023-04-03T13:53:31;11.56;55.91
63051;SHT30;49136;47.416;19.402;2023-04-03T13:56:08;11.81;57.25
63051;SHT30;49136;47.416;19.402;2023-04-03T13:58:34;11.99;56.32
63051;SHT30;49136;47.416;19.402;2023-04-03T14:01:21;11.94;54.32
63051;SHT30;49136;47.416;19.402;2023-04-03T14:06:19;11.54;55.38
63051;SHT30;49136;47.416;19.402;2023-04-03T14:08:46;11.74;54.85
63051;SHT30;49136;47.416;19.402;2023-04-03T14:11:26;11.53;54.64
63051;SHT30;49136;47.416;19.402;2023-04-03T14:13:55;11.77;55.51
63051;SHT30;49136;47.416;19.402;2023-04-03T14:16:26;11.75;54.25
63051;SHT30;49136;47.416;19.402;2023-04-03T14:18:52;12.01;53.58
63051;SHT30;49136;47.416;19.402;2023-04-03T14:21:19;11.60;53.59
63051;SHT30;49136;47.416;19.402;2023-04-03T14:23:46;11.40;53.28
63051;SHT30;49136;47.416;19.402;2023-04-03T14:26:17;11.25;53.70
63051;SHT30;49136;47.416;19.402;2023-04-03T14:28:47;10.99;53.30
63051;SHT30;49136;47.416;19.402;2023-04-03T14:31:14;11.43;54.53
63051;SHT30;49136;47.416;19.402;2023-04-03T14:33:40;11.32;54.29
63051;SHT30;49136;47.416;19.402;2023-04-03T14:36:20;11.36;54.86
63051;SHT30;49136;47.416;19.402;2023-04-03T14:38:46;11.42;54.22
63051;SHT30;49136;47.416;19.402;2023-04-03T14:41:13;10.88;53.44
63051;SHT30;49136;47.416;19.402;2023-04-03T14:43:40;10.94;53.99
63051;SHT30;49136;47.416;19.402;2023-04-03T14:46:15;10.90;54.26
63051;SHT30;49136;47.416;19.402;2023-04-03T14:48:41;10.95;54.35
63051;SHT30;49136;47.416;19.402;2023-04-03T14:51:10;10.99;55.02
63051;SHT30;49136;47.416;19.402;2023-04-03T14:53:36;10.87;55.99
63051;SHT30;49136;47.416;19.402;2023-04-03T14:56:02;10.99;55.14
63051;SHT30;49136;47.416;19.402;2023-04-03T14:58:27;11.09;55.78
63051;SHT30;49136;47.416;19.402;2023-04-03T15:00:54;11.08;55.12
63051;SHT30;49136;47.416;19.402;2023-04-03T15:03:21;10.90;54.64
63051;SHT30;49136;47.416;19.402;2023-04-03T15:05:49;10.78;55.28
63051;SHT30;49136;47.416;19.402;2023-04-03T15:08:22;10.53;55.08
63051;SHT30;49136;47.416;19.402;2023-04-03T15:10:49;10.49;55.24
63051;SHT30;49136;47.416;19.402;2023-04-03T15:13:15;10.56;55.42
63051;SHT30;49136;47.416;19.402;2023-04-03T15:15:41;10.59;54.44
63051;SHT30;49136;47.416;19.402;2023-04-03T15:18:14;10.63;54.63
63051;SHT30;49136;47.416;19.402;2023-04-03T15:20:40;10.39;54.87
63051;SHT30;49136;47.416;19.402;2023-04-03T15:23:06;10.39;54.33
63051;SHT30;49136;47.416;19.402;2023-04-03T15:25:31;10.32;54.96
63051;SHT30;49136;47.416;19.402;2023-04-03T15:27:57;10.24;55.13
63051;SHT30;49136;47.416;19.402;2023-04-03T15:30:23;10.21;55.09
63051;SHT30;49136;47.416;19.402;2023-04-03T15:32:49;10.09;54.88
63051;SHT30;49136;47.416;19.402;2023-04-03T15:35:15;10.24;55.87
63051;SHT30;49136;47.416;19.402;2023-04-03T15:37:40;10.36;55.22
63051;SHT30;49136;47.416;19.402;2023-04-03T15:40:06;10.12;55.29
63051;SHT30;49136;47.416;19.402;2023-04-03T15:42:32;10.08;55.72
63051;SHT30;49136;47.416;19.402;2023-04-03T15:44:58;10.01;56.17
63051;SHT30;49136;47.416;19.402;2023-04-03T15:47:25;10.07;55.93
63051;SHT30;49136;47.416;19.402;2023-04-03T15:49:51;9.93;57.39
63051;SHT30;49136;47.416;19.402;2023-04-03T15:52:17;9.64;57.82
63051;SHT30;49136;47.416;19.402;2023-04-03T15:54:43;9.55;58.92
63051;SHT30;49136;47.416;19.402;2023-04-03T15:57:08;9.46;59.49
63051;SHT30;49136;47.416;19.402;2023-04-03T15:59:33;9.42;59.50
63051;SHT30;49136;47.416;19.402;2023-04-03T16:02:00;8.94;62.08
63051;SHT30;49136;47.416;19.402;2023-04-03T16:04:27;9.01;63.85
63051;SHT30;49136;47.416;19.402;2023-04-03T16:06:53;9.10;63.30
63051;SHT30;49136;47.416;19.402;2023-04-03T16:09:18;8.93;64.19
63051;SHT30;49136;47.416;19.402;2023-04-03T16:11:43;8.94;64.35
63051;SHT30;49136;47.416;19.402;2023-04-03T16:14:09;8.86;64.00
63051;SHT30;49136;47.416;19.402;2023-04-03T16:16:35;8.70;64.33
63051;SHT30;49136;47.416;19.402;2023-04-03T16:19:01;8.51;64.36
63051;SHT30;49136;47.416;19.402;2023-04-03T16:21:27;8.58;64.70
63051;SHT30;49136;47.416;19.402;2023-04-03T16:23:53;8.26;65.09
63051;SHT30;49136;47.416;19.402;2023-04-03T16:26:19;8.21;66.52
63051;SHT30;49136;47.416;19.402;2023-04-03T16:28:45;8.17;66.19
63051;SHT30;49136;47.416;19.402;2023-04-03T16:31:11;8.19;66.01
63051;SHT30;49136;47.416;19.402;2023-04-03T16:33:36;8.28;66.02
63051;SHT30;49136;47.416;19.402;2023-04-03T16:36:03;8.11;66.90
63051;SHT30;49136;47.416;19.402;2023-04-03T16:38:29;7.93;67.16
63051;SHT30;49136;47.416;19.402;2023-04-03T16:40:55;7.99;67.55
63051;SHT30;49136;47.416;19.402;2023-04-03T16:43:27;7.86;68.11
63051;SHT30;49136;47.416;19.402;2023-04-03T16:45:53;7.85;68.70
63051;SHT30;49136;47.416;19.402;2023-04-03T16:48:18;7.72;68.49
63051;SHT30;49136;47.416;19.402;2023-04-03T16:50:48;7.74;68.49
63051;SHT30;49136;47.416;19.402;2023-04-03T16:53:14;7.74;68.37
63051;SHT30;49136;47.416;19.402;2023-04-03T16:55:40;7.67;67.40
63051;SHT30;49136;47.416;19.402;2023-04-03T16:58:06;7.71;65.69
63051;SHT30;49136;47.416;19.402;2023-04-03T17:00:32;7.68;64.80
63051;SHT30;49136;47.416;19.402;2023-04-03T17:02:59;7.48;64.42
63051;SHT30;49136;47.416;19.402;2023-04-03T17:05:24;7.33;64.84
63051;SHT30;49136;47.416;19.402;2023-04-03T17:07:50;7.38;65.04
63051;SHT30;49136;47.416;19.402;2023-04-03T17:10:16;7.31;63.72
63051;SHT30;49136;47.416;19.402;2023-04-03T17:12:42;7.24;64.59
63051;SHT30;49136;47.416;19.402;2023-04-03T17:15:08;7.20;64.90
63051;SHT30;49136;47.416;19.402;2023-04-03T17:17:33;6.99;65.99
63051;SHT30;49136;47.416;19.402;2023-04-03T17:19:59;6.89;66.55
63051;SHT30;49136;47.416;19.402;2023-04-03T17:22:25;6.81;67.45
63051;SHT30;49136;47.416;19.402;2023-04-03T17:24:51;6.80;67.35